createdAt,value
2018-03-26T00:00:39.916Z,31.40
2018-03-26T00:01:39.903Z,32.30
2018-03-26T00:02:39.941Z,31.40
2018-03-26T00:03:39.937Z,31.40
2018-03-26T00:04:39.946Z,32.90
2018-03-26T00:05:39.947Z,32.20
2018-03-26T00:06:39.975Z,31.70
2018-03-26T00:07:39.953Z,32.90
2018-03-26T00:08:39.997Z,31.20
2018-03-26T00:09:39.996Z,32.60
2018-03-26T00:10:39.984Z,31.30
2018-03-26T00:11:39.997Z,30.70
2018-03-26T00:12:40.067Z,33.30
2018-03-26T00:13:40.039Z,30.90
2018-03-26T00:14:40.039Z,31.40
2018-03-26T00:15:40.037Z,31.90
2018-03-26T00:16:40.044Z,33.00
2018-03-26T00:17:40.044Z,32.20
2018-03-26T00:18:40.133Z,31.20
2018-03-26T00:19:40.055Z,31.10
2018-03-26T00:20:40.068Z,30.30
2018-03-26T00:21:40.087Z,31.30
2018-03-26T00:22:40.095Z,31.60
2018-03-26T00:23:40.139Z,30.70
2018-03-26T00:24:40.146Z,31.70
2018-03-26T00:25:40.126Z,30.80
2018-03-26T00:26:40.165Z,32.40
2018-03-26T00:27:40.122Z,32.70
2018-03-26T00:28:40.167Z,31.30
2018-03-26T00:29:40.157Z,30.90
2018-03-26T00:30:40.192Z,31.50
2018-03-26T00:31:40.157Z,31.80
2018-03-26T00:32:40.183Z,32.60
2018-03-26T00:33:40.256Z,31.00
2018-03-26T00:34:40.216Z,30.70
2018-03-26T00:35:40.234Z,31.70
2018-03-26T00:36:40.231Z,33.40
2018-03-26T00:37:40.217Z,32.70
2018-03-26T00:38:40.252Z,30.30
2018-03-26T00:39:40.229Z,30.20
2018-03-26T00:40:40.269Z,30.70
2018-03-26T00:41:40.275Z,34.30
2018-03-26T00:42:40.250Z,32.50
2018-03-26T00:43:40.323Z,30.90
2018-03-26T00:44:40.273Z,30.00
2018-03-26T00:45:40.279Z,31.30
2018-03-26T00:46:40.344Z,30.10
2018-03-26T00:47:40.348Z,32.60
2018-03-26T00:48:40.298Z,30.50
2018-03-26T00:49:40.308Z,31.30
2018-03-26T00:50:40.372Z,30.80
2018-03-26T00:51:40.337Z,30.20
2018-03-26T00:52:40.339Z,31.00
2018-03-26T00:53:40.351Z,30.80
2018-03-26T00:54:40.380Z,31.00
2018-03-26T00:55:40.406Z,31.20
2018-03-26T00:56:40.368Z,30.80
2018-03-26T00:57:40.409Z,29.90
2018-03-26T00:58:40.383Z,30.50
2018-03-26T00:59:40.469Z,30.70
2018-03-26T01:00:40.420Z,30.90
2018-03-26T01:01:40.429Z,29.10
2018-03-26T01:02:40.514Z,29.50
2018-03-26T01:03:40.447Z,29.20
2018-03-26T01:04:40.449Z,29.20
2018-03-26T01:05:40.491Z,30.40
2018-03-26T01:06:40.468Z,30.60
2018-03-26T01:07:40.493Z,32.60
2018-03-26T01:08:40.517Z,30.30
2018-03-26T01:09:40.529Z,29.70
2018-03-26T01:10:40.508Z,29.60
2018-03-26T01:11:40.500Z,30.40
2018-03-26T01:12:40.547Z,28.20
2018-03-26T01:13:40.533Z,29.70
2018-03-26T01:14:40.530Z,28.80
2018-03-26T01:15:40.579Z,28.90
2018-03-26T01:16:40.542Z,29.60
2018-03-26T01:17:40.608Z,30.40
2018-03-26T01:18:40.567Z,29.30
2018-03-26T01:19:40.579Z,28.30
2018-03-26T01:20:40.579Z,28.10
2018-03-26T01:21:40.581Z,27.20
2018-03-26T01:22:40.592Z,27.50
2018-03-26T01:23:40.654Z,27.50
2018-03-26T01:24:40.613Z,26.40
2018-03-26T01:25:40.611Z,27.40
2018-03-26T01:26:40.668Z,27.50
2018-03-26T01:27:40.648Z,28.00
2018-03-26T01:28:40.674Z,28.50
2018-03-26T01:29:40.644Z,30.00
2018-03-26T01:30:40.670Z,26.60
2018-03-26T01:31:40.682Z,27.70
2018-03-26T01:32:40.701Z,27.90
2018-03-26T01:33:40.701Z,28.40
2018-03-26T01:34:40.684Z,26.50
2018-03-26T01:35:40.710Z,28.10
2018-03-26T01:36:40.724Z,27.50
2018-03-26T01:37:40.756Z,25.90
2018-03-26T01:38:40.888Z,27.20
2018-03-26T01:39:40.746Z,28.00
2018-03-26T01:40:40.804Z,27.10
2018-03-26T01:41:40.770Z,26.40
2018-03-26T01:42:40.784Z,27.50
2018-03-26T01:43:40.774Z,27.40
2018-03-26T01:44:40.783Z,27.10
2018-03-26T01:45:41.769Z,27.30
2018-03-26T01:46:40.846Z,28.20
2018-03-26T01:47:40.816Z,26.80
2018-03-26T01:48:40.826Z,27.60
2018-03-26T01:49:40.815Z,28.30
2018-03-26T01:50:40.848Z,27.40
2018-03-26T01:51:40.834Z,27.40
2018-03-26T01:52:40.910Z,28.50
2018-03-26T01:53:40.848Z,27.40
2018-03-26T01:54:40.868Z,26.40
2018-03-26T01:55:40.898Z,27.80
2018-03-26T01:56:40.886Z,27.70
2018-03-26T01:57:40.918Z,26.90
2018-03-26T01:58:40.925Z,27.50
2018-03-26T01:59:40.913Z,28.20
2018-03-26T02:00:40.898Z,27.70
2018-03-26T02:01:40.940Z,28.70
2018-03-26T02:02:40.931Z,28.40
2018-03-26T02:03:40.976Z,27.50
2018-03-26T02:04:41.001Z,28.50
2018-03-26T02:05:40.972Z,28.50
2018-03-26T02:06:40.951Z,27.20
2018-03-26T02:07:40.965Z,28.70
2018-03-26T02:08:41.011Z,27.40
2018-03-26T02:09:40.986Z,27.90
2018-03-26T02:10:41.044Z,29.00
2018-03-26T02:11:40.992Z,27.10
2018-03-26T02:12:41.002Z,28.60
2018-03-26T02:13:41.034Z,29.30
2018-03-26T02:14:41.050Z,28.60
2018-03-26T02:15:41.092Z,28.70
2018-03-26T02:16:41.041Z,27.50
2018-03-26T02:17:41.082Z,27.10
2018-03-26T02:18:41.063Z,26.90
2018-03-26T02:19:41.074Z,28.00
2018-03-26T02:20:41.108Z,31.70
2018-03-26T02:21:41.196Z,28.20
2018-03-26T02:22:41.093Z,27.80
2018-03-26T02:23:41.095Z,28.90
2018-03-26T02:24:41.099Z,28.70
2018-03-26T02:25:41.122Z,28.50
2018-03-26T02:26:41.146Z,28.20
2018-03-26T02:27:41.177Z,27.10
2018-03-26T02:28:41.141Z,28.90
2018-03-26T02:29:41.155Z,29.20
2018-03-26T02:30:41.208Z,29.50
2018-03-26T02:31:41.175Z,28.80
2018-03-26T02:32:41.183Z,27.00
2018-03-26T02:33:41.198Z,28.00
2018-03-26T02:34:41.186Z,27.50
2018-03-26T02:35:41.260Z,27.40
2018-03-26T02:36:41.197Z,28.60
2018-03-26T02:37:41.220Z,29.70
2018-03-26T02:38:41.230Z,30.60
2018-03-26T02:39:41.238Z,30.10
2018-03-26T02:40:41.277Z,27.20
2018-03-26T02:41:41.239Z,27.40
2018-03-26T02:42:41.288Z,27.40
2018-03-26T02:43:41.274Z,27.10
2018-03-26T02:44:41.257Z,27.60
2018-03-26T02:45:41.285Z,26.00
2018-03-26T02:46:41.284Z,28.60
2018-03-26T02:47:41.285Z,27.60
2018-03-26T02:48:41.344Z,28.20
2018-03-26T02:49:41.304Z,27.70
2018-03-26T02:50:41.395Z,28.00
2018-03-26T02:51:41.331Z,27.20
2018-03-26T02:52:41.325Z,27.20
2018-03-26T02:53:41.417Z,26.90
2018-03-26T02:54:41.339Z,27.70
2018-03-26T02:55:41.371Z,28.00
2018-03-26T02:56:41.373Z,28.60
2018-03-26T02:57:41.369Z,27.40
2018-03-26T02:58:41.377Z,29.50
2018-03-26T02:59:41.431Z,29.30
2018-03-26T03:00:41.420Z,29.40
2018-03-26T03:01:41.439Z,28.10
2018-03-26T03:02:41.416Z,29.90
2018-03-26T03:03:41.427Z,28.80
2018-03-26T03:04:41.476Z,28.60
2018-03-26T03:05:41.455Z,29.50
2018-03-26T03:06:41.454Z,29.10
2018-03-26T03:07:41.458Z,30.30
2018-03-26T03:08:41.466Z,30.50
2018-03-26T03:09:41.489Z,31.10
2018-03-26T03:10:41.501Z,29.30
2018-03-26T03:11:41.490Z,30.40
2018-03-26T03:12:41.534Z,30.20
2018-03-26T03:13:41.492Z,29.80
2018-03-26T03:14:41.522Z,30.00
2018-03-26T03:15:41.554Z,29.50
2018-03-26T03:16:41.526Z,30.60
2018-03-26T03:17:41.540Z,29.30
2018-03-26T03:18:41.583Z,29.90
2018-03-26T03:19:41.559Z,30.10
2018-03-26T03:20:41.570Z,30.40
2018-03-26T03:21:41.571Z,30.90
2018-03-26T03:22:41.574Z,29.50
2018-03-26T03:23:41.610Z,31.70
2018-03-26T03:24:41.587Z,30.80
2018-03-26T03:25:41.595Z,32.60
2018-03-26T03:26:41.607Z,33.40
2018-03-26T03:27:41.606Z,33.60
2018-03-26T03:28:41.674Z,32.40
2018-03-26T03:29:41.648Z,33.20
2018-03-26T03:30:41.673Z,30.60
2018-03-26T03:31:41.645Z,33.10
2018-03-26T03:32:41.698Z,31.50
2018-03-26T03:33:41.659Z,33.00
2018-03-26T03:34:41.657Z,32.00
2018-03-26T03:35:41.709Z,32.40
2018-03-26T03:36:41.676Z,34.60
2018-03-26T03:37:41.721Z,38.80
2018-03-26T03:38:41.688Z,38.20
2018-03-26T03:39:41.695Z,38.60
2018-03-26T03:40:41.703Z,37.40
2018-03-26T03:41:41.715Z,37.80
2018-03-26T03:42:41.762Z,36.30
2018-03-26T03:43:41.736Z,36.10
2018-03-26T03:44:41.736Z,33.50
2018-03-26T03:45:41.790Z,34.00
2018-03-26T03:46:41.798Z,32.20
2018-03-26T03:47:41.803Z,34.10
2018-03-26T03:48:41.772Z,34.50
2018-03-26T03:49:41.780Z,33.70
2018-03-26T03:50:41.820Z,34.20
2018-03-26T03:51:41.829Z,33.10
2018-03-26T03:52:41.820Z,34.00
2018-03-26T03:53:41.809Z,34.80
2018-03-26T03:54:41.818Z,34.60
2018-03-26T03:55:41.865Z,34.10
2018-03-26T03:56:41.848Z,35.00
2018-03-26T03:57:41.891Z,34.20
2018-03-26T03:58:41.864Z,33.40
2018-03-26T03:59:41.863Z,33.80
2018-03-26T04:00:41.881Z,33.10
2018-03-26T04:01:41.888Z,34.80
2018-03-26T04:02:41.883Z,36.00
2018-03-26T04:03:41.931Z,34.90
2018-03-26T04:04:41.899Z,33.90
2018-03-26T04:05:41.935Z,35.10
2018-03-26T04:06:41.918Z,33.50
2018-03-26T04:07:41.958Z,35.70
2018-03-26T04:08:41.989Z,35.40
2018-03-26T04:09:41.945Z,34.10
2018-03-26T04:10:41.950Z,33.20
2018-03-26T04:11:42.003Z,33.30
2018-03-26T04:12:41.969Z,35.40
2018-03-26T04:13:42.020Z,36.10
2018-03-26T04:14:41.985Z,35.10
2018-03-26T04:15:41.995Z,35.60
2018-03-26T04:16:42.001Z,35.20
2018-03-26T04:17:42.007Z,34.90
2018-03-26T04:18:42.026Z,36.00
2018-03-26T04:19:42.069Z,35.30
2018-03-26T04:20:42.031Z,34.90
2018-03-26T04:21:42.063Z,35.20
2018-03-26T04:22:42.045Z,35.60
2018-03-26T04:23:42.076Z,34.30
2018-03-26T04:24:42.121Z,35.60
2018-03-26T04:25:42.062Z,34.20
2018-03-26T04:26:42.109Z,36.60
2018-03-26T04:27:42.077Z,37.10
2018-03-26T04:28:42.101Z,36.40
2018-03-26T04:29:42.141Z,35.20
2018-03-26T04:30:42.182Z,35.20
2018-03-26T04:31:42.149Z,35.50
2018-03-26T04:32:42.152Z,35.40
2018-03-26T04:33:42.149Z,36.00
2018-03-26T04:34:42.159Z,37.10
2018-03-26T04:35:42.184Z,37.30
2018-03-26T04:36:42.164Z,37.50
2018-03-26T04:37:42.220Z,37.10
2018-03-26T04:38:42.186Z,36.40
2018-03-26T04:39:42.189Z,37.90
2018-03-26T04:40:42.272Z,37.90
2018-03-26T04:41:42.237Z,37.30
2018-03-26T04:42:42.219Z,39.00
2018-03-26T04:43:42.225Z,39.20
2018-03-26T04:44:42.232Z,36.50
2018-03-26T04:45:42.273Z,35.90
2018-03-26T04:46:42.239Z,36.60
2018-03-26T04:47:42.288Z,38.40
2018-03-26T04:48:42.253Z,41.10
2018-03-26T04:49:42.298Z,38.80
2018-03-26T04:50:42.274Z,41.40
2018-03-26T04:51:42.320Z,40.90
2018-03-26T04:52:42.316Z,40.20
2018-03-26T04:53:42.348Z,40.10
2018-03-26T04:54:42.295Z,41.20
2018-03-26T04:55:42.333Z,42.40
2018-03-26T04:56:42.321Z,46.30
2018-03-26T04:57:42.332Z,43.20
2018-03-26T04:58:42.343Z,40.70
2018-03-26T04:59:42.579Z,43.20
2018-03-26T05:00:42.397Z,41.40
2018-03-26T05:01:42.364Z,41.50
2018-03-26T05:02:42.390Z,39.60
2018-03-26T05:03:42.410Z,39.80
2018-03-26T05:04:42.404Z,41.10
2018-03-26T05:05:42.426Z,41.40
2018-03-26T05:06:42.437Z,40.30
2018-03-26T05:07:42.425Z,41.30
2018-03-26T05:08:42.431Z,40.30
2018-03-26T05:09:42.435Z,40.50
2018-03-26T05:10:42.570Z,41.00
2018-03-26T05:11:42.452Z,38.40
2018-03-26T05:12:42.515Z,38.20
2018-03-26T05:13:42.478Z,36.70
2018-03-26T05:14:42.467Z,36.70
2018-03-26T05:15:42.484Z,37.90
2018-03-26T05:16:42.492Z,38.60
2018-03-26T05:17:42.517Z,37.90
2018-03-26T05:18:42.546Z,35.90
2018-03-26T05:19:42.512Z,38.90
2018-03-26T05:20:42.525Z,38.90
2018-03-26T05:21:42.522Z,36.80
2018-03-26T05:22:42.631Z,37.60
2018-03-26T05:23:42.546Z,38.10
2018-03-26T05:24:42.567Z,37.70
2018-03-26T05:25:42.570Z,34.90
2018-03-26T05:26:42.565Z,39.90
2018-03-26T05:27:42.624Z,42.30
2018-03-26T05:28:42.583Z,36.70
2018-03-26T05:29:42.624Z,36.60
2018-03-26T05:30:42.597Z,37.20
2018-03-26T05:31:42.612Z,35.60
2018-03-26T05:32:42.616Z,41.90
2018-03-26T05:33:42.641Z,39.70
2018-03-26T05:34:42.660Z,40.70
2018-03-26T05:35:42.716Z,39.50
2018-03-26T05:36:42.651Z,40.70
2018-03-26T05:37:42.650Z,38.60
2018-03-26T05:38:42.668Z,38.90
2018-03-26T05:39:42.763Z,40.10
2018-03-26T05:40:42.708Z,38.80
2018-03-26T05:41:42.702Z,41.70
2018-03-26T05:42:42.715Z,41.50
2018-03-26T05:43:42.766Z,39.90
2018-03-26T05:44:42.723Z,39.80
2018-03-26T05:45:42.756Z,41.50
2018-03-26T05:46:42.796Z,42.10
2018-03-26T05:47:42.800Z,42.00
2018-03-26T05:48:42.756Z,42.90
2018-03-26T05:49:42.759Z,40.90
2018-03-26T05:50:42.772Z,39.90
2018-03-26T05:51:42.789Z,38.60
2018-03-26T05:52:42.788Z,38.60
2018-03-26T05:53:42.847Z,39.20
2018-03-26T05:54:42.801Z,36.50
2018-03-26T05:55:42.810Z,35.00
2018-03-26T05:56:42.814Z,37.60
2018-03-26T05:57:42.819Z,37.20
2018-03-26T05:58:42.880Z,38.60
2018-03-26T05:59:42.896Z,39.80
2018-03-26T06:00:42.896Z,40.30
2018-03-26T06:01:42.922Z,41.40
2018-03-26T06:02:42.855Z,39.90
2018-03-26T06:03:42.864Z,38.50
2018-03-26T06:04:42.942Z,39.10
2018-03-26T06:05:43.101Z,39.60
2018-03-26T06:06:42.900Z,39.50
2018-03-26T06:07:42.946Z,40.70
2018-03-26T06:08:42.908Z,38.70
2018-03-26T06:09:42.950Z,39.00
2018-03-26T06:10:42.925Z,37.80
2018-03-26T06:11:43.000Z,38.00
2018-03-26T06:12:42.942Z,39.00
2018-03-26T06:13:42.960Z,40.60
2018-03-26T06:14:42.983Z,39.10
2018-03-26T06:15:42.995Z,37.60
2018-03-26T06:16:42.976Z,38.20
2018-03-26T06:17:43.014Z,39.80
2018-03-26T06:18:43.013Z,38.80
2018-03-26T06:19:43.006Z,40.60
2018-03-26T06:20:43.045Z,40.00
2018-03-26T06:21:43.013Z,38.00
2018-03-26T06:22:43.089Z,37.90
2018-03-26T06:23:43.043Z,38.90
2018-03-26T06:24:43.054Z,37.70
2018-03-26T06:25:43.054Z,38.90
2018-03-26T06:26:43.090Z,37.30
2018-03-26T06:27:43.075Z,36.90
2018-03-26T06:28:43.136Z,39.30
2018-03-26T06:29:43.105Z,36.50
2018-03-26T06:30:43.131Z,39.90
2018-03-26T06:31:43.109Z,37.50
2018-03-26T06:32:43.113Z,42.60
2018-03-26T06:33:43.195Z,46.40
2018-03-26T06:34:43.187Z,39.20
2018-03-26T06:35:43.137Z,38.00
2018-03-26T06:36:43.157Z,37.90
2018-03-26T06:37:43.157Z,38.80
2018-03-26T06:38:43.155Z,40.80
2018-03-26T06:39:43.166Z,36.00
2018-03-26T06:40:43.259Z,40.70
2018-03-26T06:41:43.190Z,38.40
2018-03-26T06:42:43.194Z,39.80
2018-03-26T06:43:43.231Z,38.90
2018-03-26T06:44:43.216Z,39.30
2018-03-26T06:45:43.278Z,37.80
2018-03-26T06:46:43.233Z,38.10
2018-03-26T06:47:43.242Z,37.00
2018-03-26T06:48:43.238Z,39.60
2018-03-26T06:49:43.256Z,37.10
2018-03-26T06:50:43.308Z,36.20
2018-03-26T06:51:43.268Z,38.90
2018-03-26T06:52:43.278Z,36.80
2018-03-26T06:53:43.284Z,37.20
2018-03-26T06:54:43.308Z,36.20
2018-03-26T06:55:43.293Z,36.50
2018-03-26T06:56:43.381Z,33.40
2018-03-26T06:57:43.366Z,32.20
2018-03-26T06:58:43.335Z,31.60
2018-03-26T06:59:43.331Z,33.10
2018-03-26T07:00:43.338Z,33.10
2018-03-26T07:01:43.362Z,40.10
2018-03-26T07:02:43.361Z,41.60
2018-03-26T07:03:43.395Z,34.00
2018-03-26T07:04:43.384Z,34.40
2018-03-26T07:05:43.391Z,34.90
2018-03-26T07:06:43.571Z,33.50
2018-03-26T07:07:43.438Z,33.20
2018-03-26T07:08:43.472Z,32.50
2018-03-26T07:09:43.427Z,34.80
2018-03-26T07:10:43.422Z,34.40
2018-03-26T07:11:43.437Z,37.60
2018-03-26T07:12:43.496Z,37.90
2018-03-26T07:13:43.447Z,35.00
2018-03-26T07:14:43.510Z,35.50
2018-03-26T07:15:43.466Z,34.20
2018-03-26T07:16:43.465Z,33.00
2018-03-26T07:17:43.482Z,33.50
2018-03-26T07:18:43.521Z,34.90
2018-03-26T07:19:43.505Z,33.00
2018-03-26T07:20:43.508Z,32.50
2018-03-26T07:21:43.564Z,30.80
2018-03-26T07:22:43.519Z,31.70
2018-03-26T07:23:43.575Z,33.10
2018-03-26T07:24:43.532Z,31.80
2018-03-26T07:25:43.571Z,33.10
2018-03-26T07:26:43.564Z,32.70
2018-03-26T07:27:43.563Z,31.70
2018-03-26T07:28:43.576Z,31.90
2018-03-26T07:29:43.608Z,31.80
2018-03-26T07:30:43.607Z,31.10
2018-03-26T07:31:43.594Z,33.90
2018-03-26T07:32:43.612Z,32.40
2018-03-26T07:33:43.606Z,32.50
2018-03-26T07:34:43.690Z,30.60
2018-03-26T07:35:43.657Z,33.80
2018-03-26T07:36:43.652Z,31.60
2018-03-26T07:37:43.666Z,35.30
2018-03-26T07:38:43.650Z,33.90
2018-03-26T07:39:43.656Z,33.60
2018-03-26T07:40:43.726Z,35.80
2018-03-26T07:41:43.686Z,33.80
2018-03-26T07:42:43.686Z,33.10
2018-03-26T07:43:43.722Z,34.80
2018-03-26T07:44:43.690Z,33.50
2018-03-26T07:45:43.739Z,34.60
2018-03-26T07:46:43.704Z,35.90
2018-03-26T07:47:43.759Z,35.20
2018-03-26T07:48:43.747Z,35.70
2018-03-26T07:49:43.736Z,36.50
2018-03-26T07:50:43.844Z,35.30
2018-03-26T07:51:43.761Z,35.20
2018-03-26T07:52:43.809Z,36.30
2018-03-26T07:53:43.771Z,39.00
2018-03-26T07:54:43.789Z,35.60
2018-03-26T07:55:43.793Z,35.60
2018-03-26T07:56:43.799Z,36.00
2018-03-26T07:57:43.828Z,37.80
2018-03-26T07:58:43.832Z,37.60
2018-03-26T07:59:43.865Z,35.00
2018-03-26T08:00:43.828Z,36.30
2018-03-26T08:01:43.832Z,36.00
2018-03-26T08:02:43.841Z,36.60
2018-03-26T08:03:43.953Z,36.30
2018-03-26T08:04:43.865Z,36.30
2018-03-26T08:05:43.867Z,36.20
2018-03-26T08:06:43.889Z,35.80
2018-03-26T08:07:43.886Z,34.00
2018-03-26T08:08:43.939Z,39.20
2018-03-26T08:09:43.899Z,35.70
2018-03-26T08:10:43.906Z,36.90
2018-03-26T08:11:43.977Z,37.00
2018-03-26T08:12:43.932Z,37.90
2018-03-26T08:13:44.067Z,36.30
2018-03-26T08:14:43.937Z,36.50
2018-03-26T08:15:43.942Z,37.30
2018-03-26T08:16:43.948Z,38.10
2018-03-26T08:17:44.020Z,37.10
2018-03-26T08:18:44.009Z,37.20
2018-03-26T08:19:43.983Z,36.90
2018-03-26T08:20:44.047Z,36.80
2018-03-26T08:21:44.077Z,36.60
2018-03-26T08:22:43.994Z,36.90
2018-03-26T08:23:44.013Z,37.00
2018-03-26T08:24:44.046Z,39.90
2018-03-26T08:25:44.023Z,40.80
2018-03-26T08:26:44.025Z,42.10
2018-03-26T08:27:44.081Z,40.20
2018-03-26T08:28:44.047Z,40.90
2018-03-26T08:29:44.080Z,41.90
2018-03-26T08:30:44.073Z,40.50
2018-03-26T08:31:44.091Z,44.50
2018-03-26T08:32:44.122Z,43.20
2018-03-26T08:33:44.080Z,44.70
2018-03-26T08:34:44.127Z,40.20
2018-03-26T08:35:44.123Z,40.80
2018-03-26T08:36:44.122Z,39.30
2018-03-26T08:37:44.124Z,40.40
2018-03-26T08:38:44.157Z,38.70
2018-03-26T08:39:44.173Z,38.50
2018-03-26T08:40:44.167Z,38.00
2018-03-26T08:41:44.159Z,38.60
2018-03-26T08:42:44.186Z,37.40
2018-03-26T08:43:44.200Z,37.80
2018-03-26T08:44:44.209Z,36.70
2018-03-26T08:45:44.175Z,37.00
2018-03-26T08:46:44.183Z,38.60
2018-03-26T08:47:44.211Z,38.90
2018-03-26T08:48:44.219Z,41.10
2018-03-26T08:49:44.319Z,39.10
2018-03-26T08:50:44.222Z,37.10
2018-03-26T08:51:44.281Z,39.20
2018-03-26T08:52:44.245Z,37.40
2018-03-26T08:53:44.261Z,36.60
2018-03-26T08:54:44.259Z,38.80
2018-03-26T08:55:44.261Z,38.50
2018-03-26T08:56:44.274Z,38.50
2018-03-26T08:57:44.319Z,38.70
2018-03-26T08:58:44.285Z,37.60
2018-03-26T08:59:44.296Z,37.80
2018-03-26T09:00:44.338Z,42.00
2018-03-26T09:01:44.305Z,39.50
2018-03-26T09:02:44.351Z,39.80
2018-03-26T09:03:44.319Z,40.80
2018-03-26T09:04:44.327Z,37.90
2018-03-26T09:05:44.379Z,38.40
2018-03-26T09:06:44.345Z,37.80
2018-03-26T09:07:44.401Z,40.40
2018-03-26T09:08:44.398Z,42.30
2018-03-26T09:09:44.400Z,41.10
2018-03-26T09:10:44.380Z,40.60
2018-03-26T09:11:44.458Z,39.40
2018-03-26T09:12:44.419Z,39.70
2018-03-26T09:13:44.438Z,39.60
2018-03-26T09:14:44.420Z,39.80
2018-03-26T09:15:44.422Z,40.20
2018-03-26T09:16:44.441Z,42.00
2018-03-26T09:17:44.440Z,41.00
2018-03-26T09:18:44.510Z,40.10
2018-03-26T09:19:44.455Z,40.40
2018-03-26T09:20:44.475Z,44.30
2018-03-26T09:21:44.477Z,43.30
2018-03-26T09:22:44.481Z,40.10
2018-03-26T09:23:44.534Z,41.10
2018-03-26T09:24:44.498Z,44.30
2018-03-26T09:25:44.512Z,40.60
2018-03-26T09:26:44.514Z,43.70
2018-03-26T09:27:44.520Z,41.70
2018-03-26T09:28:44.565Z,40.50
2018-03-26T09:29:44.597Z,42.80
2018-03-26T09:30:44.555Z,40.80
2018-03-26T09:31:44.561Z,40.70
2018-03-26T09:32:44.566Z,41.50
2018-03-26T09:33:44.633Z,43.80
2018-03-26T09:34:44.625Z,41.40
2018-03-26T09:35:44.603Z,42.80
2018-03-26T09:36:44.603Z,42.60
2018-03-26T09:37:44.648Z,45.60
2018-03-26T09:38:44.661Z,42.20
2018-03-26T09:39:44.660Z,41.00
2018-03-26T09:40:44.654Z,42.10
2018-03-26T09:41:44.682Z,41.60
2018-03-26T09:42:44.649Z,40.90
2018-03-26T09:43:44.666Z,42.10
2018-03-26T09:44:44.669Z,45.10
2018-03-26T09:45:44.712Z,43.20
2018-03-26T09:46:44.700Z,44.90
2018-03-26T09:47:44.712Z,44.40
2018-03-26T09:48:44.710Z,43.40
2018-03-26T09:49:44.711Z,45.30
2018-03-26T09:50:44.753Z,42.80
2018-03-26T09:51:44.731Z,47.00
2018-03-26T09:52:44.741Z,44.30
2018-03-26T09:53:44.761Z,48.30
2018-03-26T09:54:44.759Z,46.60
2018-03-26T09:55:44.799Z,49.60
2018-03-26T09:56:44.773Z,49.50
2018-03-26T09:57:44.819Z,47.80
2018-03-26T09:58:44.866Z,48.20
2018-03-26T09:59:44.805Z,48.00
2018-03-26T10:00:44.803Z,48.60
2018-03-26T10:01:44.835Z,46.90
2018-03-26T10:02:44.854Z,50.60
2018-03-26T10:03:44.832Z,49.00
2018-03-26T10:04:44.850Z,50.40
2018-03-26T10:05:44.869Z,50.20
2018-03-26T10:06:44.870Z,49.30
2018-03-26T10:07:44.897Z,47.60
2018-03-26T10:08:44.905Z,48.80
2018-03-26T10:09:44.879Z,49.10
2018-03-26T10:10:44.899Z,49.10
2018-03-26T10:11:44.906Z,48.50
2018-03-26T10:12:44.926Z,49.00
2018-03-26T10:13:44.955Z,49.50
2018-03-26T10:14:44.932Z,50.80
2018-03-26T10:15:44.971Z,51.20
2018-03-26T10:16:44.964Z,51.10
2018-03-26T10:17:44.963Z,52.40
2018-03-26T10:18:44.959Z,52.30
2018-03-26T10:19:45.019Z,54.50
2018-03-26T10:20:45.016Z,56.10
2018-03-26T10:21:44.981Z,55.80
2018-03-26T10:22:44.993Z,57.80
2018-03-26T10:23:45.024Z,53.30
2018-03-26T10:24:45.050Z,51.60
2018-03-26T10:25:45.018Z,52.90
2018-03-26T10:26:45.026Z,56.30
2018-03-26T10:27:45.038Z,50.80
2018-03-26T10:28:45.047Z,54.20
2018-03-26T10:29:45.089Z,53.70
2018-03-26T10:30:45.146Z,52.60
2018-03-26T10:31:45.068Z,53.60
2018-03-26T10:32:45.081Z,54.20
2018-03-26T10:33:45.099Z,52.10
2018-03-26T10:34:45.104Z,55.40
2018-03-26T10:35:45.119Z,55.50
2018-03-26T10:36:45.144Z,54.90
2018-03-26T10:37:45.166Z,58.90
2018-03-26T10:38:45.159Z,55.30
2018-03-26T10:39:45.142Z,54.10
2018-03-26T10:40:45.151Z,55.80
2018-03-26T10:41:45.163Z,54.60
2018-03-26T10:42:45.204Z,55.70
2018-03-26T10:43:45.181Z,51.30
2018-03-26T10:44:45.195Z,53.80
2018-03-26T10:45:45.233Z,52.80
2018-03-26T10:46:45.242Z,54.90
2018-03-26T10:47:45.209Z,55.20
2018-03-26T10:48:45.218Z,55.10
2018-03-26T10:49:45.227Z,51.90
2018-03-26T10:50:45.232Z,52.90
2018-03-26T10:51:45.273Z,54.20
2018-03-26T10:52:45.330Z,55.60
2018-03-26T10:53:45.289Z,56.40
2018-03-26T10:54:45.263Z,55.00
2018-03-26T10:55:45.279Z,55.70
2018-03-26T10:56:45.285Z,56.90
2018-03-26T10:57:45.329Z,55.60
2018-03-26T10:58:45.305Z,53.90
2018-03-26T10:59:45.315Z,55.50
2018-03-26T11:00:45.312Z,56.40
2018-03-26T11:01:45.325Z,55.00
2018-03-26T11:02:45.372Z,57.10
2018-03-26T11:03:45.396Z,58.30
2018-03-26T11:04:45.351Z,60.90
2018-03-26T11:05:45.392Z,58.00
2018-03-26T11:06:45.375Z,56.80
2018-03-26T11:07:45.404Z,57.70
2018-03-26T11:08:45.401Z,57.60
2018-03-26T11:09:45.395Z,59.70
2018-03-26T11:10:45.429Z,58.50
2018-03-26T11:11:45.410Z,60.70
2018-03-26T11:12:45.415Z,57.90
2018-03-26T11:13:45.438Z,57.20
2018-03-26T11:14:45.446Z,61.60
2018-03-26T11:15:45.480Z,59.20
2018-03-26T11:16:45.448Z,59.40
2018-03-26T11:17:45.458Z,60.20
2018-03-26T11:18:45.465Z,59.00
2018-03-26T11:19:45.472Z,61.80
2018-03-26T11:20:45.535Z,60.30
2018-03-26T11:21:45.515Z,61.40
2018-03-26T11:22:45.493Z,57.70
2018-03-26T11:23:45.511Z,57.70
2018-03-26T11:24:45.515Z,60.00
2018-03-26T11:25:45.522Z,53.70
2018-03-26T11:26:45.576Z,55.10
2018-03-26T11:27:45.545Z,53.80
2018-03-26T11:28:45.577Z,53.10
2018-03-26T11:29:45.559Z,52.60
2018-03-26T11:30:45.561Z,56.50
2018-03-26T11:31:45.613Z,51.00
2018-03-26T11:32:45.632Z,51.90
2018-03-26T11:33:45.600Z,49.00
2018-03-26T11:34:45.634Z,49.50
2018-03-26T11:35:45.628Z,49.60
2018-03-26T11:36:45.618Z,48.80
2018-03-26T11:37:45.630Z,54.40
2018-03-26T11:38:45.669Z,50.20
2018-03-26T11:39:45.654Z,53.10
2018-03-26T11:40:45.651Z,52.90
2018-03-26T11:41:45.677Z,51.60
2018-03-26T11:42:45.661Z,51.80
2018-03-26T11:43:45.708Z,49.60
2018-03-26T11:44:45.675Z,50.10
2018-03-26T11:45:45.690Z,48.50
2018-03-26T11:46:45.712Z,50.30
2018-03-26T11:47:45.707Z,44.40
2018-03-26T11:48:45.714Z,44.30
2018-03-26T11:49:45.760Z,45.70
2018-03-26T11:50:45.753Z,43.40
2018-03-26T11:51:45.740Z,43.10
2018-03-26T11:52:45.751Z,43.80
2018-03-26T11:53:45.796Z,43.90
2018-03-26T11:54:45.807Z,40.70
2018-03-26T11:55:45.767Z,41.90
2018-03-26T11:56:45.788Z,43.30
2018-03-26T11:57:45.797Z,44.00
2018-03-26T11:58:45.796Z,41.10
2018-03-26T11:59:45.840Z,42.20
2018-03-26T12:00:45.816Z,41.50
2018-03-26T12:01:45.812Z,40.30
2018-03-26T12:02:45.826Z,40.70
2018-03-26T12:03:45.830Z,38.30
2018-03-26T12:04:45.890Z,41.10
2018-03-26T12:05:45.841Z,37.30
2018-03-26T12:06:45.852Z,41.10
2018-03-26T12:07:45.882Z,40.80
2018-03-26T12:08:45.869Z,40.80
2018-03-26T12:09:45.919Z,42.10
2018-03-26T12:10:45.888Z,39.60
2018-03-26T12:11:45.976Z,40.70
2018-03-26T12:12:45.912Z,38.60
2018-03-26T12:13:45.940Z,41.90
2018-03-26T12:14:45.919Z,38.60
2018-03-26T12:15:45.939Z,38.20
2018-03-26T12:16:45.942Z,39.60
2018-03-26T12:17:46.001Z,40.50
2018-03-26T12:18:45.961Z,38.80
2018-03-26T12:19:45.994Z,37.90
2018-03-26T12:20:45.975Z,36.80
2018-03-26T12:21:46.050Z,36.70
2018-03-26T12:22:46.000Z,35.40
2018-03-26T12:23:45.998Z,36.50
2018-03-26T12:24:45.999Z,37.40
2018-03-26T12:25:46.005Z,35.60
2018-03-26T12:26:46.008Z,35.50
2018-03-26T12:27:46.073Z,39.20
2018-03-26T12:28:46.061Z,36.60
2018-03-26T12:29:46.125Z,35.60
2018-03-26T12:30:46.065Z,36.80
2018-03-26T12:31:46.049Z,37.80
2018-03-26T12:32:46.059Z,40.50
2018-03-26T12:33:46.137Z,39.90
2018-03-26T12:34:46.074Z,39.90
2018-03-26T12:35:46.079Z,41.10
2018-03-26T12:36:46.090Z,37.10
2018-03-26T12:37:46.094Z,41.30
2018-03-26T12:38:46.106Z,40.30
2018-03-26T12:39:46.160Z,38.90
2018-03-26T12:40:46.146Z,39.70
2018-03-26T12:41:46.125Z,41.20
2018-03-26T12:42:46.132Z,39.40
2018-03-26T12:43:46.150Z,38.90
2018-03-26T12:44:46.164Z,39.80
2018-03-26T12:45:46.203Z,40.30
2018-03-26T12:46:46.185Z,40.60
2018-03-26T12:47:46.201Z,40.20
2018-03-26T12:48:46.187Z,43.00
2018-03-26T12:49:46.195Z,43.70
2018-03-26T12:50:46.236Z,45.50
2018-03-26T12:51:46.281Z,45.70
2018-03-26T12:52:46.214Z,44.80